createdAt,value
2019-02-26T00:01:31.998Z,67.00
2019-02-26T00:04:00.547Z,67.40
2019-02-26T00:06:30.216Z,68.00
2019-02-26T00:09:01.454Z,67.50
2019-02-26T00:11:33.194Z,67.80
2019-02-26T00:14:03.179Z,67.30
2019-02-26T00:16:37.677Z,67.40
2019-02-26T00:19:05.089Z,67.20
2019-02-26T00:21:37.685Z,66.70
2019-02-26T00:24:07.318Z,66.90
2019-02-26T00:26:38.355Z,66.90
2019-02-26T00:29:08.367Z,68.50
2019-02-26T00:31:36.995Z,67.80
2019-02-26T00:34:08.297Z,68.20
2019-02-26T00:36:38.218Z,68.50
2019-02-26T00:39:07.322Z,69.00
2019-02-26T00:41:40.228Z,69.80
2019-02-26T00:44:08.834Z,69.70
2019-02-26T00:46:39.507Z,70.00
2019-02-26T00:49:07.712Z,71.00
2019-02-26T00:51:36.303Z,71.20
2019-02-26T00:54:07.180Z,72.10
2019-02-26T00:56:36.429Z,71.40
2019-02-26T00:59:05.954Z,71.80
2019-02-26T01:01:38.892Z,71.80
2019-02-26T01:04:07.362Z,72.00
2019-02-26T01:06:35.839Z,71.90
2019-02-26T01:09:08.818Z,72.60
2019-02-26T01:11:39.401Z,72.80
2019-02-26T01:14:08.029Z,72.20
2019-02-26T01:16:37.067Z,72.10
2019-02-26T01:19:08.522Z,72.70
2019-02-26T01:21:37.923Z,73.30
2019-02-26T01:24:08.565Z,73.90
2019-02-26T01:26:40.788Z,72.90
2019-02-26T01:29:08.626Z,73.70
2019-02-26T01:31:37.075Z,73.30
2019-02-26T01:34:05.633Z,73.50
2019-02-26T01:36:34.140Z,73.60
2019-02-26T01:39:09.318Z,73.60
2019-02-26T01:41:45.470Z,74.00
2019-02-26T01:44:11.986Z,74.20
2019-02-26T01:46:41.155Z,74.00
2019-02-26T01:49:09.742Z,74.20
2019-02-26T01:51:42.831Z,74.50
2019-02-26T01:54:12.082Z,74.60
2019-02-26T01:56:41.739Z,74.50
2019-02-26T01:59:10.313Z,75.10
2019-02-26T02:01:42.155Z,74.90
2019-02-26T02:04:11.058Z,74.90
2019-02-26T02:06:41.242Z,74.70
2019-02-26T02:09:15.845Z,74.90
2019-02-26T02:11:44.133Z,75.10
2019-02-26T02:14:13.258Z,75.10
2019-02-26T02:16:42.776Z,75.70
2019-02-26T02:19:18.037Z,76.10
2019-02-26T02:21:44.687Z,76.00
2019-02-26T02:24:19.558Z,75.80
2019-02-26T02:26:55.483Z,75.80
2019-02-26T02:29:19.212Z,76.10
2019-02-26T02:31:48.069Z,76.30
2019-02-26T02:34:16.597Z,76.40
2019-02-26T02:36:45.055Z,76.40
2019-02-26T02:39:15.729Z,76.40
2019-02-26T02:41:45.416Z,76.60
2019-02-26T02:44:17.957Z,76.60
2019-02-26T02:46:46.691Z,76.70
2019-02-26T02:49:17.804Z,76.30
2019-02-26T02:51:45.522Z,77.10
2019-02-26T02:54:15.420Z,77.00
2019-02-26T02:56:44.422Z,76.90
2019-02-26T02:59:14.118Z,76.40
2019-02-26T03:01:45.563Z,76.40
2019-02-26T03:04:17.283Z,76.00
2019-02-26T03:06:43.562Z,75.80
2019-02-26T03:09:15.216Z,75.50
2019-02-26T03:11:46.367Z,75.30
2019-02-26T03:14:16.536Z,74.90
2019-02-26T03:16:45.674Z,74.90
2019-02-26T03:19:16.906Z,74.60
2019-02-26T03:21:47.097Z,75.10
2019-02-26T03:24:14.931Z,75.20
2019-02-26T03:26:43.366Z,75.20
2019-02-26T03:29:11.822Z,76.00
2019-02-26T03:31:41.909Z,76.50
2019-02-26T03:34:14.648Z,76.30
2019-02-26T03:37:03.101Z,76.90
2019-02-26T03:39:30.086Z,76.90
2019-02-26T03:41:58.516Z,76.90
2019-02-26T03:44:29.588Z,77.50
2019-02-26T03:46:57.106Z,76.80
2019-02-26T03:49:27.043Z,77.20
2019-02-26T03:51:59.252Z,77.60
2019-02-26T03:54:25.838Z,77.80
2019-02-26T03:56:54.270Z,78.20
2019-02-26T03:59:22.720Z,78.30
2019-02-26T04:01:51.221Z,78.70
2019-02-26T04:04:20.599Z,78.90
2019-02-26T04:06:49.858Z,78.90
2019-02-26T04:09:19.590Z,78.70
2019-02-26T04:11:51.036Z,77.80
2019-02-26T04:14:20.190Z,78.50
2019-02-26T04:16:48.769Z,78.70
2019-02-26T04:19:17.222Z,79.00
2019-02-26T04:22:23.436Z,78.80
2019-02-26T04:24:54.908Z,78.70
2019-02-26T04:27:30.552Z,79.30
2019-02-26T04:30:27.645Z,79.50
2019-02-26T04:33:09.600Z,79.20
2019-02-26T04:35:42.337Z,79.20
2019-02-26T04:38:18.252Z,79.60
2019-02-26T04:40:50.443Z,81.30
2019-02-26T04:43:36.028Z,80.00
2019-02-26T04:46:22.218Z,79.20
2019-02-26T04:48:50.762Z,79.30
2019-02-26T04:51:19.217Z,79.60
2019-02-26T04:53:49.172Z,80.30
2019-02-26T04:56:17.840Z,81.70
2019-02-26T04:58:47.797Z,81.60
2019-02-26T05:01:19.060Z,80.60
2019-02-26T05:03:46.666Z,81.10
2019-02-26T05:06:15.118Z,81.20
2019-02-26T05:08:43.545Z,80.50
2019-02-26T05:11:17.430Z,81.20
2019-02-26T05:13:42.147Z,81.40
2019-02-26T05:16:10.603Z,81.60
2019-02-26T05:18:39.034Z,81.40
2019-02-26T05:21:08.390Z,82.00
2019-02-26T05:23:37.642Z,81.60
2019-02-26T05:26:08.241Z,81.20
2019-02-26T05:28:37.892Z,82.10
2019-02-26T05:31:08.496Z,81.80
2019-02-26T05:33:36.659Z,82.60
2019-02-26T05:36:06.220Z,84.20
2019-02-26T05:38:37.536Z,85.10
2019-02-26T05:41:05.697Z,86.10
2019-02-26T05:43:34.150Z,85.10
2019-02-26T05:46:03.978Z,83.20
2019-02-26T05:48:32.682Z,83.20
2019-02-26T05:51:03.538Z,83.20
2019-02-26T05:53:31.298Z,83.30
2019-02-26T05:55:59.766Z,82.60
2019-02-26T05:58:28.218Z,83.20
2019-02-26T06:00:56.931Z,81.60
2019-02-26T06:03:25.363Z,82.00
2019-02-26T06:05:55.519Z,82.70
2019-02-26T06:08:26.743Z,81.60
2019-02-26T06:10:54.190Z,82.10
2019-02-26T06:13:22.670Z,81.90
2019-02-26T06:15:52.272Z,81.90
2019-02-26T06:18:21.295Z,82.20
2019-02-26T06:20:51.577Z,81.90
2019-02-26T06:23:19.898Z,82.10
2019-02-26T06:25:48.356Z,80.60
2019-02-26T06:28:18.565Z,79.70
2019-02-26T06:30:46.966Z,79.70
2019-02-26T06:33:16.416Z,79.50
2019-02-26T06:35:45.031Z,78.90
2019-02-26T06:38:13.479Z,78.60
2019-02-26T06:40:46.295Z,78.90
2019-02-26T06:43:12.106Z,79.50
2019-02-26T06:45:43.052Z,81.30
2019-02-26T06:48:12.531Z,78.90
2019-02-26T06:50:41.574Z,78.60
2019-02-26T06:53:13.171Z,78.20
2019-02-26T06:55:41.222Z,77.40
2019-02-26T06:58:20.829Z,76.80
2019-02-26T07:00:53.323Z,79.00
2019-02-26T07:03:19.697Z,77.60
2019-02-26T07:05:48.193Z,76.40
2019-02-26T07:08:16.658Z,75.90
2019-02-26T07:10:45.104Z,75.60
2019-02-26T07:13:14.150Z,74.50
2019-02-26T07:16:04.558Z,73.90
2019-02-26T07:18:32.266Z,73.10
2019-02-26T07:21:00.728Z,73.20
2019-02-26T07:23:29.766Z,73.20
2019-02-26T07:25:59.694Z,72.50
2019-02-26T07:28:28.132Z,72.10
2019-02-26T07:30:56.586Z,71.20
2019-02-26T07:33:27.385Z,70.70
2019-02-26T07:35:57.332Z,71.00
2019-02-26T07:38:27.672Z,70.60
2019-02-26T07:40:56.703Z,70.20
2019-02-26T07:43:26.561Z,70.10
2019-02-26T07:45:55.018Z,70.40
2019-02-26T07:48:25.880Z,70.60
2019-02-26T07:50:53.656Z,70.10
2019-02-26T07:53:22.862Z,69.30
2019-02-26T07:55:52.254Z,68.60
2019-02-26T07:58:20.697Z,68.00
2019-02-26T08:00:49.868Z,66.80
2019-02-26T08:03:20.147Z,66.30
2019-02-26T08:05:49.479Z,65.00
2019-02-26T08:08:19.218Z,64.10
2019-02-26T08:10:48.944Z,63.80
2019-02-26T08:13:18.267Z,63.10
2019-02-26T08:15:46.710Z,61.90
2019-02-26T08:18:34.495Z,60.90
2019-02-26T08:21:04.864Z,59.40
2019-02-26T08:23:33.202Z,58.50
2019-02-26T08:26:02.300Z,58.40
2019-02-26T08:28:30.870Z,58.00
2019-02-26T08:30:59.311Z,57.70
2019-02-26T08:33:27.754Z,57.20
2019-02-26T08:35:56.228Z,56.90
2019-02-26T08:38:29.355Z,56.50
2019-02-26T08:40:54.914Z,56.00
2019-02-26T08:43:23.354Z,56.10
2019-02-26T08:45:51.798Z,57.00
2019-02-26T08:48:22.263Z,57.20
2019-02-26T08:50:50.440Z,57.50
2019-02-26T08:53:19.672Z,56.80
2019-02-26T08:55:50.942Z,56.10
2019-02-26T08:58:19.279Z,56.40
2019-02-26T09:00:47.738Z,56.50
2019-02-26T09:03:17.964Z,56.00
2019-02-26T09:05:46.393Z,55.60
2019-02-26T09:08:15.866Z,56.00
2019-02-26T09:10:46.902Z,56.30
2019-02-26T09:13:16.389Z,56.00
2019-02-26T09:15:45.615Z,55.60
2019-02-26T09:18:14.068Z,55.20
2019-02-26T09:20:42.518Z,56.00
2019-02-26T09:23:10.974Z,55.80
2019-02-26T09:25:39.437Z,56.10
2019-02-26T09:28:07.937Z,55.70
2019-02-26T09:30:38.345Z,56.50
2019-02-26T09:33:30.513Z,55.30
2019-02-26T09:35:56.707Z,55.30
2019-02-26T09:38:25.596Z,55.30
2019-02-26T09:40:54.680Z,54.80
2019-02-26T09:43:24.470Z,55.10
2019-02-26T09:45:53.077Z,54.30
2019-02-26T09:48:22.050Z,53.80
2019-02-26T09:50:50.638Z,54.00
2019-02-26T09:53:19.086Z,53.40
2019-02-26T09:55:47.531Z,52.90
2019-02-26T09:58:18.079Z,52.70
2019-02-26T10:00:48.100Z,51.90
2019-02-26T10:03:16.327Z,51.70
2019-02-26T10:05:45.942Z,51.50
2019-02-26T10:08:16.760Z,51.50
2019-02-26T10:10:45.153Z,51.60
2019-02-26T10:13:13.605Z,51.00
2019-02-26T10:15:42.824Z,50.00
2019-02-26T10:18:12.222Z,49.10
2019-02-26T10:20:42.707Z,49.10
2019-02-26T10:23:10.858Z,48.10
2019-02-26T10:25:39.310Z,46.60
2019-02-26T10:28:09.668Z,47.00
2019-02-26T10:30:41.039Z,47.70
2019-02-26T10:33:08.173Z,47.60
2019-02-26T10:35:38.707Z,47.40
2019-02-26T10:38:08.986Z,45.70
2019-02-26T10:40:50.128Z,45.10
2019-02-26T10:43:07.143Z,45.00
2019-02-26T10:45:39.037Z,45.00
2019-02-26T10:48:07.304Z,44.50
2019-02-26T10:50:37.248Z,44.50
2019-02-26T10:53:09.860Z,45.00
2019-02-26T10:55:39.267Z,44.30
2019-02-26T10:58:09.985Z,43.40
2019-02-26T11:00:37.936Z,42.80
2019-02-26T11:03:08.949Z,43.90
2019-02-26T11:05:39.559Z,44.60
2019-02-26T11:08:09.392Z,44.50
2019-02-26T11:10:41.436Z,45.70
2019-02-26T11:13:08.375Z,46.70
2019-02-26T11:15:36.878Z,46.30
2019-02-26T11:18:05.936Z,46.60
2019-02-26T11:20:34.613Z,46.50
2019-02-26T11:23:05.897Z,46.60
2019-02-26T11:25:33.309Z,46.50
2019-02-26T11:28:02.503Z,45.60
2019-02-26T11:30:32.307Z,44.90
2019-02-26T11:33:03.119Z,44.40
2019-02-26T11:35:31.067Z,43.70
2019-02-26T11:37:59.527Z,43.20
2019-02-26T11:40:30.579Z,43.80
2019-02-26T11:43:00.087Z,42.70
2019-02-26T11:45:28.587Z,42.10
2019-02-26T11:47:58.127Z,43.20
2019-02-26T11:50:28.424Z,43.60
2019-02-26T11:52:57.483Z,43.60
2019-02-26T11:55:28.512Z,43.60
2019-02-26T11:57:56.195Z,43.50
2019-02-26T12:00:42.024Z,42.70
2019-02-26T12:03:09.327Z,43.40
2019-02-26T12:05:39.578Z,43.40
2019-02-26T12:08:07.952Z,44.40
2019-02-26T12:10:37.814Z,45.00
2019-02-26T12:13:06.768Z,45.90
2019-02-26T12:15:37.948Z,45.90
2019-02-26T12:18:05.473Z,45.80
2019-02-26T12:20:35.590Z,46.20
2019-02-26T12:23:04.102Z,46.80
2019-02-26T12:25:32.539Z,46.70
2019-02-26T12:28:02.870Z,46.60
2019-02-26T12:30:32.352Z,46.70
2019-02-26T12:33:01.352Z,46.60
2019-02-26T12:35:33.210Z,46.40
2019-02-26T12:38:16.960Z,46.40
2019-02-26T12:40:30.165Z,46.80
2019-02-26T12:42:58.599Z,47.20
2019-02-26T12:45:28.608Z,47.50
2019-02-26T12:47:57.220Z,47.30
2019-02-26T12:50:29.038Z,47.00
2019-02-26T12:52:57.071Z,46.90
2019-02-26T12:55:29.479Z,47.00
2019-02-26T12:57:56.475Z,47.40
2019-02-26T13:00:26.297Z,47.30
2019-02-26T13:02:55.010Z,47.20
2019-02-26T13:05:45.774Z,47.50
2019-02-26T13:10:46.652Z,48.20
2019-02-26T13:13:13.346Z,47.30
2019-02-26T13:15:41.793Z,47.20
2019-02-26T13:18:10.242Z,47.10
2019-02-26T13:20:38.697Z,45.70
2019-02-26T13:23:17.263Z,45.90
2019-02-26T13:25:37.337Z,45.90
2019-02-26T13:28:11.496Z,45.40
2019-02-26T13:30:39.999Z,45.60
2019-02-26T13:33:11.239Z,45.50
2019-02-26T13:35:41.952Z,45.90
2019-02-26T13:38:10.265Z,45.90
2019-02-26T13:40:38.857Z,45.60
2019-02-26T13:43:08.101Z,45.30
2019-02-26T13:45:36.559Z,45.40
2019-02-26T13:48:05.131Z,44.50
2019-02-26T13:50:38.968Z,44.50
2019-02-26T13:53:06.879Z,44.10
2019-02-26T13:55:35.324Z,44.70
2019-02-26T13:58:11.471Z,44.50
2019-02-26T14:00:33.938Z,44.70
2019-02-26T14:03:04.107Z,44.40
2019-02-26T14:05:38.071Z,44.80
2019-02-26T14:08:02.728Z,45.10
2019-02-26T14:10:31.186Z,45.10
2019-02-26T14:12:59.650Z,44.80
2019-02-26T14:15:32.464Z,45.00
2019-02-26T14:18:00.916Z,45.30
2019-02-26T14:20:29.387Z,45.70
2019-02-26T14:22:57.833Z,46.10
2019-02-26T14:25:26.287Z,45.30
2019-02-26T14:27:54.831Z,45.20
2019-02-26T14:30:23.716Z,45.10
2019-02-26T14:32:52.156Z,44.60
2019-02-26T14:35:20.599Z,43.60
2019-02-26T14:37:49.106Z,44.80
2019-02-26T14:40:21.622Z,44.40
2019-02-26T14:42:51.545Z,44.50
2019-02-26T14:45:25.141Z,44.80
2019-02-26T14:47:54.644Z,44.30
2019-02-26T14:50:26.210Z,45.30
2019-02-26T14:52:54.950Z,45.00
2019-02-26T14:55:23.399Z,44.80
2019-02-26T14:57:51.838Z,44.40
2019-02-26T15:00:23.362Z,44.10
2019-02-26T15:02:51.800Z,44.20
2019-02-26T15:05:21.980Z,44.10
2019-02-26T15:07:52.824Z,44.30
2019-02-26T15:10:21.303Z,44.80
2019-02-26T15:12:49.827Z,44.80
2019-02-26T15:15:18.998Z,45.40
2019-02-26T15:17:47.529Z,45.20
2019-02-26T15:20:20.285Z,45.90
2019-02-26T15:22:48.808Z,46.80
2019-02-26T15:25:25.541Z,46.50
2019-02-26T15:27:54.094Z,46.90
2019-02-26T15:30:23.512Z,47.10
2019-02-26T15:32:52.046Z,47.50
2019-02-26T15:35:21.701Z,47.50
2019-02-26T15:37:50.207Z,47.80
2019-02-26T15:40:20.895Z,47.50
2019-02-26T15:42:52.324Z,46.90
2019-02-26T15:45:23.756Z,47.20
2019-02-26T15:47:52.183Z,47.40
2019-02-26T15:50:21.372Z,46.20
2019-02-26T15:52:52.742Z,46.30
2019-02-26T15:55:27.957Z,46.40
2019-02-26T15:57:55.802Z,46.70
2019-02-26T16:00:27.285Z,47.00
2019-02-26T16:03:03.165Z,47.00
2019-02-26T16:05:38.077Z,47.50
2019-02-26T16:08:06.849Z,48.00
2019-02-26T16:10:35.400Z,48.10
2019-02-26T16:13:08.238Z,48.40
2019-02-26T16:15:39.921Z,48.50
2019-02-26T16:18:08.535Z,48.40
2019-02-26T16:20:39.686Z,48.60
2019-02-26T16:23:11.391Z,48.50
2019-02-26T16:25:39.932Z,49.00
2019-02-26T16:28:08.491Z,49.50
2019-02-26T16:30:45.397Z,49.60
2019-02-26T16:33:15.564Z,50.20
2019-02-26T16:35:44.279Z,50.60
2019-02-26T16:38:14.181Z,51.00
2019-02-26T16:40:43.446Z,51.20
2019-02-26T16:43:14.832Z,51.40
2019-02-26T16:45:43.824Z,51.50
2019-02-26T16:48:12.353Z,51.60
2019-02-26T16:50:40.865Z,51.20
2019-02-26T16:53:09.362Z,51.50
2019-02-26T16:55:37.979Z,51.60
2019-02-26T16:58:06.427Z,51.70
2019-02-26T17:00:34.963Z,51.60
2019-02-26T17:03:03.414Z,51.80
2019-02-26T17:05:31.862Z,52.60
2019-02-26T17:08:00.326Z,51.60
2019-02-26T17:10:30.274Z,51.70
2019-02-26T17:13:01.770Z,51.60
2019-02-26T17:15:33.516Z,51.70
2019-02-26T17:18:02.042Z,51.40
2019-02-26T17:20:30.517Z,51.30
2019-02-26T17:22:59.030Z,51.70
2019-02-26T17:25:28.876Z,52.60
2019-02-26T17:27:57.518Z,52.00
2019-02-26T17:30:26.168Z,51.80
2019-02-26T17:32:54.743Z,52.60
2019-02-26T17:35:23.198Z,51.60
2019-02-26T17:37:51.665Z,52.30
2019-02-26T17:40:23.818Z,51.70
2019-02-26T17:42:54.206Z,51.50
2019-02-26T17:45:34.973Z,51.50
2019-02-26T17:48:03.545Z,51.80
2019-02-26T17:50:37.341Z,52.60
2019-02-26T17:53:05.897Z,52.40
2019-02-26T17:55:34.470Z,52.10
2019-02-26T17:58:02.972Z,51.70
2019-02-26T18:00:33.051Z,52.10
2019-02-26T18:03:06.436Z,52.20
2019-02-26T18:05:31.907Z,52.60
2019-02-26T18:08:00.614Z,52.40
2019-02-26T18:10:29.062Z,53.00
2019-02-26T18:12:57.524Z,52.60
2019-02-26T18:15:26.139Z,53.50
2019-02-26T18:17:54.654Z,54.00
2019-02-26T18:20:28.090Z,53.80
2019-02-26T18:22:59.887Z,54.10
2019-02-26T18:25:25.797Z,53.70
2019-02-26T18:27:54.377Z,53.10
2019-02-26T18:30:24.657Z,53.00
2019-02-26T18:32:57.416Z,53.30
2019-02-26T18:35:23.514Z,53.40
2019-02-26T18:37:52.203Z,53.60
2019-02-26T18:40:20.767Z,54.30
2019-02-26T18:42:49.552Z,54.60
2019-02-26T18:45:27.918Z,55.00
2019-02-26T18:47:56.584Z,55.00
2019-02-26T18:50:25.773Z,55.90
2019-02-26T18:52:55.579Z,55.10
2019-02-26T18:55:27.984Z,55.30
2019-02-26T18:57:54.518Z,55.60
2019-02-26T19:00:31.202Z,55.40
2019-02-26T19:02:59.741Z,55.30
2019-02-26T19:05:28.379Z,55.20
2019-02-26T19:07:56.901Z,55.30
2019-02-26T19:10:25.409Z,55.80
2019-02-26T19:12:56.696Z,55.70
2019-02-26T19:15:27.671Z,55.90
2019-02-26T19:18:02.134Z,57.00
2019-02-26T19:20:36.981Z,57.40
2019-02-26T19:23:05.544Z,57.90
2019-02-26T19:25:34.000Z,58.40
2019-02-26T19:28:03.774Z,59.00
2019-02-26T19:30:32.255Z,59.90
2019-02-26T19:33:00.805Z,60.00
2019-02-26T19:35:29.345Z,60.90
2019-02-26T19:38:04.266Z,61.60
2019-02-26T19:40:44.643Z,62.20
2019-02-26T19:43:14.779Z,63.80
2019-02-26T19:45:44.822Z,63.60
2019-02-26T19:48:15.132Z,64.30
2019-02-26T19:50:48.671Z,65.00
2019-02-26T19:53:16.590Z,65.50
2019-02-26T19:55:50.313Z,65.90
2019-02-26T19:58:41.535Z,66.10
2019-02-26T20:01:10.068Z,66.50
2019-02-26T20:03:40.206Z,66.80
2019-02-26T20:06:08.811Z,67.30
2019-02-26T20:08:37.424Z,67.70
2019-02-26T20:11:06.014Z,68.20
2019-02-26T20:13:34.663Z,68.20
2019-02-26T20:16:05.461Z,68.50
2019-02-26T20:18:33.919Z,68.10
2019-02-26T20:21:02.395Z,68.40
2019-02-26T20:23:30.948Z,68.70
2019-02-26T20:25:59.498Z,69.20
2019-02-26T20:28:28.093Z,69.90
2019-02-26T20:30:56.558Z,70.00
2019-02-26T20:33:25.067Z,70.10
2019-02-26T20:35:53.519Z,70.30
2019-02-26T20:38:25.005Z,70.90
2019-02-26T20:40:53.472Z,71.60
2019-02-26T20:43:25.480Z,71.80
2019-02-26T20:45:54.060Z,72.20
2019-02-26T20:48:22.595Z,72.40
2019-02-26T20:50:53.538Z,72.30
2019-02-26T20:53:21.259Z,72.50
2019-02-26T20:55:52.445Z,73.00
2019-02-26T20:58:19.952Z,73.80
2019-02-26T21:00:48.407Z,73.90
2019-02-26T21:03:16.919Z,73.80
2019-02-26T21:06:04.701Z,74.30
2019-02-26T21:08:33.223Z,73.70
2019-02-26T21:11:01.697Z,74.30
2019-02-26T21:13:30.216Z,74.80
2019-02-26T21:15:58.661Z,74.90
2019-02-26T21:18:30.347Z,75.40
2019-02-26T21:20:57.301Z,75.60
2019-02-26T21:23:27.817Z,75.90
2019-02-26T21:25:55.932Z,75.90
2019-02-26T21:28:24.450Z,75.90
2019-02-26T21:30:52.893Z,75.70
2019-02-26T21:33:21.360Z,76.20
2019-02-26T21:35:53.884Z,76.70
2019-02-26T21:38:20.065Z,76.70
2019-02-26T21:40:49.721Z,76.50
2019-02-26T21:43:18.670Z,77.00
2019-02-26T21:45:49.289Z,77.30
2019-02-26T21:48:17.307Z,77.30
2019-02-26T21:50:45.748Z,77.30
2019-02-26T21:53:15.957Z,77.40
2019-02-26T21:55:44.746Z,77.80
2019-02-26T21:58:14.930Z,77.90
2019-02-26T22:00:43.516Z,78.10
2019-02-26T22:03:11.972Z,78.60
2019-02-26T22:05:40.414Z,78.70
2019-02-26T22:08:08.864Z,78.60
2019-02-26T22:10:37.315Z,78.80
2019-02-26T22:13:05.776Z,79.00
2019-02-26T22:15:34.389Z,79.10
2019-02-26T22:18:04.263Z,79.50
2019-02-26T22:20:36.150Z,79.20
2019-02-26T22:23:02.872Z,79.50
2019-02-26T22:25:31.322Z,79.40
2019-02-26T22:27:59.784Z,80.20
2019-02-26T22:30:28.216Z,79.70
2019-02-26T22:32:56.944Z,80.50
2019-02-26T22:35:25.932Z,81.10
2019-02-26T22:37:54.926Z,80.40
2019-02-26T22:40:23.371Z,81.00
2019-02-26T22:42:51.831Z,81.00
2019-02-26T22:45:22.198Z,81.30
2019-02-26T22:47:50.459Z,81.10
2019-02-26T22:50:19.732Z,81.40
2019-02-26T22:52:48.180Z,81.30
2019-02-26T22:55:17.602Z,81.20
2019-02-26T22:57:46.325Z,81.40
2019-02-26T23:00:50.708Z,81.70
2019-02-26T23:03:19.158Z,81.60
2019-02-26T23:05:47.611Z,82.00
2019-02-26T23:08:16.539Z,82.00
2019-02-26T23:10:45.047Z,82.10
2019-02-26T23:13:13.575Z,82.50
2019-02-26T23:15:45.024Z,82.30
2019-02-26T23:18:13.188Z,82.30
2019-02-26T23:20:42.835Z,82.30
2019-02-26T23:23:11.829Z,82.10
2019-02-26T23:25:40.347Z,82.30
2019-02-26T23:28:08.784Z,82.30
2019-02-26T23:30:37.242Z,82.30
2019-02-26T23:33:07.360Z,82.70
2019-02-26T23:35:35.877Z,82.80
2019-02-26T23:38:07.996Z,82.90
2019-02-26T23:40:34.638Z,82.80
2019-02-26T23:43:03.086Z,82.60
2019-02-26T23:45:31.555Z,82.90
2019-02-26T23:48:00.002Z,83.40
2019-02-26T23:50:28.454Z,84.00
2019-02-26T23:53:00.864Z,83.90
2019-02-26T23:55:27.934Z,83.60
2019-02-26T23:57:57.927Z,84.20
